sensor_id;sensor_type;location;lat;lon;timestamp;pressure;altitude;pressure_sealevel;temperature;humidity
48216;BME280;34005;48.844;10.098;2023-03-21T00:00:43;96892.97;;;11.27;63.16
48216;BME280;34005;48.844;10.098;2023-03-21T00:03:12;96886.03;;;11.20;63.58
48216;BME280;34005;48.844;10.098;2023-03-21T00:05:43;96889.53;;;11.12;63.51
48216;BME280;34005;48.844;10.098;2023-03-21T00:08:15;96889.69;;;11.10;63.79
48216;BME280;34005;48.844;10.098;2023-03-21T00:10:42;96890.69;;;11.09;63.37
48216;BME280;34005;48.844;10.098;2023-03-21T00:13:11;96880.63;;;11.06;63.31
48216;BME280;34005;48.844;10.098;2023-03-21T00:15:39;96882.13;;;11.01;63.31
48216;BME280;34005;48.844;10.098;2023-03-21T00:18:36;96869.94;;;10.93;63.42
48216;BME280;34005;48.844;10.098;2023-03-21T00:21:10;96870.03;;;10.85;64.01
48216;BME280;34005;48.844;10.098;2023-03-21T00:24:00;96868.13;;;10.79;64.26
48216;BME280;34005;48.844;10.098;2023-03-21T00:26:28;96856.44;;;10.75;64.71
48216;BME280;34005;48.844;10.098;2023-03-21T00:28:57;96867.38;;;10.70;64.71
48216;BME280;34005;48.844;10.098;2023-03-21T00:31:24;96863.97;;;10.69;65.05
48216;BME280;34005;48.844;10.098;2023-03-21T00:33:52;96862.19;;;10.70;65.11
48216;BME280;34005;48.844;10.098;2023-03-21T00:36:21;96864.41;;;10.73;65.18
48216;BME280;34005;48.844;10.098;2023-03-21T00:38:51;96855.25;;;10.77;66.37
48216;BME280;34005;48.844;10.098;2023-03-21T00:41:18;96856.91;;;10.78;65.23
48216;BME280;34005;48.844;10.098;2023-03-21T00:44:06;96853.97;;;10.73;64.77
48216;BME280;34005;48.844;10.098;2023-03-21T00:46:34;96854.19;;;10.71;66.47
48216;BME280;34005;48.844;10.098;2023-03-21T00:49:12;96853.00;;;10.74;68.44
48216;BME280;34005;48.844;10.098;2023-03-21T00:51:41;96846.00;;;10.75;68.31
48216;BME280;34005;48.844;10.098;2023-03-21T00:54:10;96848.88;;;10.80;70.05
48216;BME280;34005;48.844;10.098;2023-03-21T00:56:38;96844.91;;;10.84;67.88
48216;BME280;34005;48.844;10.098;2023-03-21T00:59:06;96843.13;;;10.84;66.96
48216;BME280;34005;48.844;10.098;2023-03-21T01:01:33;96850.13;;;10.84;66.20
48216;BME280;34005;48.844;10.098;2023-03-21T01:04:01;96838.38;;;10.88;67.40
48216;BME280;34005;48.844;10.098;2023-03-21T01:06:31;96840.16;;;10.87;65.89
48216;BME280;34005;48.844;10.098;2023-03-21T01:09:00;96842.31;;;10.84;65.30
48216;BME280;34005;48.844;10.098;2023-03-21T01:11:28;96832.41;;;10.79;65.15
48216;BME280;34005;48.844;10.098;2023-03-21T01:13:56;96830.34;;;10.75;65.19
48216;BME280;34005;48.844;10.098;2023-03-21T01:16:44;96834.75;;;10.74;65.15
48216;BME280;34005;48.844;10.098;2023-03-21T01:19:13;96833.31;;;10.71;64.85
48216;BME280;34005;48.844;10.098;2023-03-21T01:21:51;96829.22;;;10.69;64.58
48216;BME280;34005;48.844;10.098;2023-03-21T01:24:20;96822.56;;;10.66;64.54
48216;BME280;34005;48.844;10.098;2023-03-21T01:26:48;96822.94;;;10.63;64.32
48216;BME280;34005;48.844;10.098;2023-03-21T01:29:15;96825.25;;;10.58;64.49
48216;BME280;34005;48.844;10.098;2023-03-21T01:31:43;96825.59;;;10.55;64.66
48216;BME280;34005;48.844;10.098;2023-03-21T01:34:11;96830.03;;;10.55;66.29
48216;BME280;34005;48.844;10.098;2023-03-21T01:36:38;96826.88;;;10.59;67.73
48216;BME280;34005;48.844;10.098;2023-03-21T01:39:06;96826.88;;;10.59;66.40
48216;BME280;34005;48.844;10.098;2023-03-21T01:41:37;96825.25;;;10.58;66.54
48216;BME280;34005;48.844;10.098;2023-03-21T01:44:13;96828.84;;;10.57;67.77
48216;BME280;34005;48.844;10.098;2023-03-21T01:46:42;96826.41;;;10.56;65.69
48216;BME280;34005;48.844;10.098;2023-03-21T01:49:27;96820.22;;;10.57;68.36
48216;BME280;34005;48.844;10.098;2023-03-21T01:52:04;96829.50;;;10.59;67.21
48216;BME280;34005;48.844;10.098;2023-03-21T01:54:41;96824.28;;;10.59;65.86
48216;BME280;34005;48.844;10.098;2023-03-21T01:57:15;96821.66;;;10.59;65.34
48216;BME280;34005;48.844;10.098;2023-03-21T01:59:47;96826.88;;;10.59;65.09
48216;BME280;34005;48.844;10.098;2023-03-21T02:02:19;96825.88;;;10.60;65.36
48216;BME280;34005;48.844;10.098;2023-03-21T02:04:49;96823.47;;;10.59;64.77
48216;BME280;34005;48.844;10.098;2023-03-21T02:07:24;96825.25;;;10.58;64.61
48216;BME280;34005;48.844;10.098;2023-03-21T02:09:55;96818.41;;;10.57;64.30
48216;BME280;34005;48.844;10.098;2023-03-21T02:12:24;96815.16;;;10.55;64.01
48216;BME280;34005;48.844;10.098;2023-03-21T02:14:53;96807.72;;;10.52;64.24
48216;BME280;34005;48.844;10.098;2023-03-21T02:17:27;96811.28;;;10.51;64.01
48216;BME280;34005;48.844;10.098;2023-03-21T02:20:21;96809.69;;;10.50;63.80
48216;BME280;34005;48.844;10.098;2023-03-21T02:23:21;96806.59;;;10.46;64.04
48216;BME280;34005;48.844;10.098;2023-03-21T02:28:47;96798.03;;;10.38;64.54
48216;BME280;34005;48.844;10.098;2023-03-21T02:31:35;96801.00;;;10.35;65.07
48216;BME280;34005;48.844;10.098;2023-03-21T02:34:22;96793.22;;;10.26;64.43
48216;BME280;34005;48.844;10.098;2023-03-21T02:37:04;96793.25;;;10.18;66.46
48216;BME280;34005;48.844;10.098;2023-03-21T02:39:40;96799.13;;;10.20;66.29
48216;BME280;34005;48.844;10.098;2023-03-21T02:42:18;96787.34;;;10.24;65.54
48216;BME280;34005;48.844;10.098;2023-03-21T02:44:53;96787.66;;;10.29;67.30
48216;BME280;34005;48.844;10.098;2023-03-21T02:47:28;96781.31;;;10.32;65.75
48216;BME280;34005;48.844;10.098;2023-03-21T02:50:06;96781.13;;;10.34;64.73
48216;BME280;34005;48.844;10.098;2023-03-21T02:52:37;96775.25;;;10.31;64.44
48216;BME280;34005;48.844;10.098;2023-03-21T02:55:10;96782.44;;;10.29;64.48
48216;BME280;34005;48.844;10.098;2023-03-21T02:57:41;96782.13;;;10.24;64.68
48216;BME280;34005;48.844;10.098;2023-03-21T03:00:15;96785.09;;;10.21;64.70
48216;BME280;34005;48.844;10.098;2023-03-21T03:02:44;96780.69;;;10.22;64.75
48216;BME280;34005;48.844;10.098;2023-03-21T03:05:18;96779.91;;;10.21;65.16
48216;BME280;34005;48.844;10.098;2023-03-21T03:08:09;96780.53;;;10.23;65.18
48216;BME280;34005;48.844;10.098;2023-03-21T03:10:52;96776.13;;;10.24;65.03
48216;BME280;34005;48.844;10.098;2023-03-21T03:13:38;96780.53;;;10.23;64.86
48216;BME280;34005;48.844;10.098;2023-03-21T03:16:15;96778.91;;;10.22;65.06
48216;BME280;34005;48.844;10.098;2023-03-21T03:18:51;96781.88;;;10.19;65.31
48216;BME280;34005;48.844;10.098;2023-03-21T03:21:22;96781.22;;;10.17;65.01
48216;BME280;34005;48.844;10.098;2023-03-21T03:23:56;96784.34;;;10.13;65.18
48216;BME280;34005;48.844;10.098;2023-03-21T03:26:27;96780.28;;;10.10;65.24
48216;BME280;34005;48.844;10.098;2023-03-21T03:28:59;96783.09;;;10.08;65.18
48216;BME280;34005;48.844;10.098;2023-03-21T03:31:31;96776.59;;;10.04;65.22
48216;BME280;34005;48.844;10.098;2023-03-21T03:34:02;96785.75;;;10.00;65.22
48216;BME280;34005;48.844;10.098;2023-03-21T03:36:34;96781.03;;;9.96;65.25
48216;BME280;34005;48.844;10.098;2023-03-21T03:39:07;96777.16;;;9.92;65.62
48216;BME280;34005;48.844;10.098;2023-03-21T03:41:41;96782.38;;;9.92;65.28
48216;BME280;34005;48.844;10.098;2023-03-21T03:44:30;96775.06;;;9.87;65.31
48216;BME280;34005;48.844;10.098;2023-03-21T03:47:02;96782.25;;;9.85;65.46
48216;BME280;34005;48.844;10.098;2023-03-21T03:49:35;96784.22;;;9.83;65.53
48216;BME280;34005;48.844;10.098;2023-03-21T03:52:08;96784.56;;;9.80;65.59
48216;BME280;34005;48.844;10.098;2023-03-21T03:54:42;96776.91;;;9.78;65.67
48216;BME280;34005;48.844;10.098;2023-03-21T03:57:10;96776.28;;;9.76;65.73
48216;BME280;34005;48.844;10.098;2023-03-21T03:59:40;96775.28;;;9.77;65.75
48216;BME280;34005;48.844;10.098;2023-03-21T04:02:08;96776.13;;;9.78;66.13
48216;BME280;34005;48.844;10.098;2023-03-21T04:04:36;96778.53;;;9.79;65.93
48216;BME280;34005;48.844;10.098;2023-03-21T04:07:04;96778.72;;;9.78;65.77
48216;BME280;34005;48.844;10.098;2023-03-21T04:09:33;96769.47;;;9.75;66.25
48216;BME280;34005;48.844;10.098;2023-03-21T04:12:11;96771.72;;;9.78;68.38
48216;BME280;34005;48.844;10.098;2023-03-21T04:14:39;96766.66;;;9.77;66.70
48216;BME280;34005;48.844;10.098;2023-03-21T04:17:13;96761.66;;;9.75;66.62
48216;BME280;34005;48.844;10.098;2023-03-21T04:19:41;96762.63;;;9.74;66.46
48216;BME280;34005;48.844;10.098;2023-03-21T04:22:08;96755.16;;;9.71;66.30
48216;BME280;34005;48.844;10.098;2023-03-21T04:24:37;96753.88;;;9.67;66.45
48216;BME280;34005;48.844;10.098;2023-03-21T04:27:05;96762.66;;;9.66;66.60
48216;BME280;34005;48.844;10.098;2023-03-21T04:29:34;96756.81;;;9.64;66.79
48216;BME280;34005;48.844;10.098;2023-03-21T04:32:01;96752.25;;;9.66;66.77
48216;BME280;34005;48.844;10.098;2023-03-21T04:34:29;96750.47;;;9.66;66.74
48216;BME280;34005;48.844;10.098;2023-03-21T04:36:57;96757.44;;;9.66;66.54
48216;BME280;34005;48.844;10.098;2023-03-21T04:39:24;96756.16;;;9.62;66.55
48216;BME280;34005;48.844;10.098;2023-03-21T04:41:52;96757.81;;;9.63;66.96
48216;BME280;34005;48.844;10.098;2023-03-21T04:44:19;96757.44;;;9.66;67.00
48216;BME280;34005;48.844;10.098;2023-03-21T04:46:48;96762.13;;;9.70;66.89
48216;BME280;34005;48.844;10.098;2023-03-21T04:49:17;96757.56;;;9.73;66.50
48216;BME280;34005;48.844;10.098;2023-03-21T04:51:44;96753.50;;;9.70;66.38
48216;BME280;34005;48.844;10.098;2023-03-21T04:54:12;96754.69;;;9.67;66.46
48216;BME280;34005;48.844;10.098;2023-03-21T04:56:39;96755.97;;;9.72;67.53
48216;BME280;34005;48.844;10.098;2023-03-21T04:59:10;96758.03;;;9.76;66.69
48216;BME280;34005;48.844;10.098;2023-03-21T05:01:38;96755.09;;;9.79;67.32
48216;BME280;34005;48.844;10.098;2023-03-21T05:04:08;96757.34;;;9.82;66.71
48216;BME280;34005;48.844;10.098;2023-03-21T05:06:36;96762.91;;;9.79;66.21
48216;BME280;34005;48.844;10.098;2023-03-21T05:09:04;96763.25;;;9.76;66.10
48216;BME280;34005;48.844;10.098;2023-03-21T05:11:34;96767.19;;;9.72;66.12
48216;BME280;34005;48.844;10.098;2023-03-21T05:14:03;96767.53;;;9.69;66.30
48216;BME280;34005;48.844;10.098;2023-03-21T05:16:31;96773.06;;;9.66;66.19
48216;BME280;34005;48.844;10.098;2023-03-21T05:19:01;96772.63;;;9.62;66.27
48216;BME280;34005;48.844;10.098;2023-03-21T05:21:32;96775.56;;;9.59;66.59
48216;BME280;34005;48.844;10.098;2023-03-21T05:24:07;96770.53;;;9.58;66.64
48216;BME280;34005;48.844;10.098;2023-03-21T05:26:38;96763.53;;;9.58;66.37
48216;BME280;34005;48.844;10.098;2023-03-21T05:29:06;96765.13;;;9.59;66.74
48216;BME280;34005;48.844;10.098;2023-03-21T05:31:34;96761.72;;;9.59;66.42
48216;BME280;34005;48.844;10.098;2023-03-21T05:34:01;96765.34;;;9.58;66.49
48216;BME280;34005;48.844;10.098;2023-03-21T05:37:08;96765.00;;;9.53;66.36
48216;BME280;34005;48.844;10.098;2023-03-21T05:40:25;96762.28;;;9.46;66.61
48216;BME280;34005;48.844;10.098;2023-03-21T05:58:54;96770.00;;;9.31;66.38
48216;BME280;34005;48.844;10.098;2023-03-21T06:01:22;96778.16;;;9.28;66.58
48216;BME280;34005;48.844;10.098;2023-03-21T06:03:50;96773.09;;;9.26;66.70
48216;BME280;34005;48.844;10.098;2023-03-21T06:06:45;96767.09;;;9.26;66.62
48216;BME280;34005;48.844;10.098;2023-03-21T06:14:03;96767.09;;;9.26;67.22
48216;BME280;34005;48.844;10.098;2023-03-21T06:17:31;96769.53;;;9.27;67.06
48216;BME280;34005;48.844;10.098;2023-03-21T06:34:26;96774.47;;;9.54;66.08
48216;BME280;34005;48.844;10.098;2023-03-21T06:36:54;96774.09;;;9.57;66.48
48216;BME280;34005;48.844;10.098;2023-03-21T06:49:52;96772.00;;;9.83;65.47
48216;BME280;34005;48.844;10.098;2023-03-21T07:00:36;96786.25;;;9.96;65.39
48216;BME280;34005;48.844;10.098;2023-03-21T07:03:03;96788.97;;;10.02;65.31
48216;BME280;34005;48.844;10.098;2023-03-21T07:05:33;96786.31;;;10.10;66.36
48216;BME280;34005;48.844;10.098;2023-03-21T07:08:02;96791.97;;;10.14;64.59
48216;BME280;34005;48.844;10.098;2023-03-21T07:10:30;96782.72;;;10.11;64.17
48216;BME280;34005;48.844;10.098;2023-03-21T07:12:58;96788.41;;;10.15;66.04
48216;BME280;34005;48.844;10.098;2023-03-21T07:15:26;96781.34;;;10.24;67.22
48216;BME280;34005;48.844;10.098;2023-03-21T07:17:54;96774.63;;;10.29;65.22
48216;BME280;34005;48.844;10.098;2023-03-21T07:20:21;96774.63;;;10.29;64.36
48216;BME280;34005;48.844;10.098;2023-03-21T07:22:50;96774.63;;;10.29;64.24
48216;BME280;34005;48.844;10.098;2023-03-21T07:25:18;96772.31;;;10.35;63.88
48216;BME280;34005;48.844;10.098;2023-03-21T07:27:46;96767.22;;;10.41;65.47
48216;BME280;34005;48.844;10.098;2023-03-21T07:30:14;96767.94;;;10.50;64.98
48216;BME280;34005;48.844;10.098;2023-03-21T07:32:42;96765.44;;;10.57;65.81
48216;BME280;34005;48.844;10.098;2023-03-21T07:35:12;96776.78;;;10.64;65.35
48216;BME280;34005;48.844;10.098;2023-03-21T07:37:41;96771.84;;;10.69;64.06
48216;BME280;34005;48.844;10.098;2023-03-21T07:40:11;96778.53;;;10.71;62.71
48216;BME280;34005;48.844;10.098;2023-03-21T07:42:39;96778.94;;;10.75;62.63
48216;BME280;34005;48.844;10.098;2023-03-21T07:45:08;96773.19;;;10.80;62.98
48216;BME280;34005;48.844;10.098;2023-03-21T07:47:36;96775.09;;;10.86;62.05
48216;BME280;34005;48.844;10.098;2023-03-21T07:50:04;96779.97;;;10.89;61.85
48216;BME280;34005;48.844;10.098;2023-03-21T07:52:32;96784.81;;;10.92;61.18
48216;BME280;34005;48.844;10.098;2023-03-21T07:54:59;96777.25;;;10.97;60.88
48216;BME280;34005;48.844;10.098;2023-03-21T07:57:28;96782.56;;;11.04;60.66
48216;BME280;34005;48.844;10.098;2023-03-21T07:59:56;96776.47;;;11.11;61.40
48216;BME280;34005;48.844;10.098;2023-03-21T08:02:23;96777.19;;;11.20;61.75
48216;BME280;34005;48.844;10.098;2023-03-21T08:04:51;96775.91;;;11.31;62.37
48216;BME280;34005;48.844;10.098;2023-03-21T08:07:19;96777.44;;;11.40;60.58
48216;BME280;34005;48.844;10.098;2023-03-21T08:09:46;96781.56;;;11.49;63.32
48216;BME280;34005;48.844;10.098;2023-03-21T08:12:14;96782.09;;;11.60;62.45
48216;BME280;34005;48.844;10.098;2023-03-21T08:14:43;96771.81;;;11.58;58.99
48216;BME280;34005;48.844;10.098;2023-03-21T08:17:11;96777.19;;;11.57;58.95
48216;BME280;34005;48.844;10.098;2023-03-21T08:19:38;96773.22;;;11.61;58.63
48216;BME280;34005;48.844;10.098;2023-03-21T08:22:06;96761.06;;;11.68;58.92
48216;BME280;34005;48.844;10.098;2023-03-21T08:24:34;96771.22;;;11.78;58.81
48216;BME280;34005;48.844;10.098;2023-03-21T08:27:01;96773.19;;;11.90;61.27
48216;BME280;34005;48.844;10.098;2023-03-21T08:29:29;96774.97;;;12.05;61.01
48216;BME280;34005;48.844;10.098;2023-03-21T08:31:58;96766.00;;;12.14;59.37
48216;BME280;34005;48.844;10.098;2023-03-21T08:34:25;96763.16;;;12.37;61.27
48216;BME280;34005;48.844;10.098;2023-03-21T08:36:53;96756.69;;;12.61;57.30
48216;BME280;34005;48.844;10.098;2023-03-21T08:39:20;96759.00;;;12.71;55.98
48216;BME280;34005;48.844;10.098;2023-03-21T08:41:50;96759.25;;;12.83;55.64
48216;BME280;34005;48.844;10.098;2023-03-21T08:44:17;96754.72;;;12.98;54.44
48216;BME280;34005;48.844;10.098;2023-03-21T08:46:45;96759.22;;;13.11;53.95
48216;BME280;34005;48.844;10.098;2023-03-21T08:49:14;96752.38;;;13.10;52.45
48216;BME280;34005;48.844;10.098;2023-03-21T08:51:41;96757.66;;;13.16;52.91
48216;BME280;34005;48.844;10.098;2023-03-21T08:54:17;96756.72;;;13.31;52.06
48216;BME280;34005;48.844;10.098;2023-03-21T08:56:46;96750.94;;;13.42;55.22
48216;BME280;34005;48.844;10.098;2023-03-21T08:59:14;96759.66;;;13.56;55.61
48216;BME280;34005;48.844;10.098;2023-03-21T09:01:41;96750.22;;;13.68;53.40
48216;BME280;34005;48.844;10.098;2023-03-21T09:04:09;96760.75;;;13.88;55.65
48216;BME280;34005;48.844;10.098;2023-03-21T09:06:39;96757.56;;;14.06;55.47
48216;BME280;34005;48.844;10.098;2023-03-21T09:09:13;96750.69;;;14.12;50.87
48216;BME280;34005;48.844;10.098;2023-03-21T09:11:40;96750.94;;;14.17;50.51
48216;BME280;34005;48.844;10.098;2023-03-21T09:14:08;96749.31;;;14.22;49.76
48216;BME280;34005;48.844;10.098;2023-03-21T09:16:37;96746.28;;;14.26;48.97
48216;BME280;34005;48.844;10.098;2023-03-21T09:19:04;96748.09;;;14.25;48.42
48216;BME280;34005;48.844;10.098;2023-03-21T09:21:34;96745.88;;;14.29;48.63
48216;BME280;34005;48.844;10.098;2023-03-21T09:24:04;96744.28;;;14.41;48.18
48216;BME280;34005;48.844;10.098;2023-03-21T09:26:32;96736.81;;;14.58;48.07
48216;BME280;34005;48.844;10.098;2023-03-21T09:29:00;96740.25;;;14.72;47.27
48216;BME280;34005;48.844;10.098;2023-03-21T09:31:28;96739.81;;;14.81;46.99
48216;BME280;34005;48.844;10.098;2023-03-21T09:33:56;96743.44;;;14.87;46.81
48216;BME280;34005;48.844;10.098;2023-03-21T09:36:24;96740.19;;;14.92;48.37
48216;BME280;34005;48.844;10.098;2023-03-21T09:38:53;96742.22;;;14.96;46.59
48216;BME280;34005;48.844;10.098;2023-03-21T09:41:37;96736.94;;;15.03;45.61
48216;BME280;34005;48.844;10.098;2023-03-21T09:44:17;96737.31;;;15.13;45.50
48216;BME280;34005;48.844;10.098;2023-03-21T09:46:54;96742.28;;;15.35;44.96
48216;BME280;34005;48.844;10.098;2023-03-21T09:49:26;96742.41;;;15.53;45.30
48216;BME280;34005;48.844;10.098;2023-03-21T09:51:58;96738.28;;;15.71;47.15
48216;BME280;34005;48.844;10.098;2023-03-21T09:54:30;96734.94;;;15.95;48.41
48216;BME280;34005;48.844;10.098;2023-03-21T09:57:04;96726.44;;;16.25;43.65
48216;BME280;34005;48.844;10.098;2023-03-21T09:59:40;96728.56;;;16.60;44.25
48216;BME280;34005;48.844;10.098;2023-03-21T10:02:25;96728.22;;;17.00;42.11
48216;BME280;34005;48.844;10.098;2023-03-21T10:05:01;96724.97;;;17.35;42.10
48216;BME280;34005;48.844;10.098;2023-03-21T10:07:38;96722.13;;;17.66;44.09
48216;BME280;34005;48.844;10.098;2023-03-21T10:10:13;96718.16;;;18.06;42.62
48216;BME280;34005;48.844;10.098;2023-03-21T10:12:45;96719.28;;;18.52;39.96
48216;BME280;34005;48.844;10.098;2023-03-21T10:15:16;96715.47;;;18.95;40.60
48216;BME280;34005;48.844;10.098;2023-03-21T10:17:49;96705.88;;;19.29;36.66
48216;BME280;34005;48.844;10.098;2023-03-21T10:20:21;96705.41;;;19.61;36.41
48216;BME280;34005;48.844;10.098;2023-03-21T10:22:50;96706.78;;;19.92;36.37
48216;BME280;34005;48.844;10.098;2023-03-21T10:25:21;96695.97;;;20.28;36.19
48216;BME280;34005;48.844;10.098;2023-03-21T10:27:52;96700.78;;;20.82;36.54
48216;BME280;34005;48.844;10.098;2023-03-21T10:30:27;96699.00;;;21.31;37.52
48216;BME280;34005;48.844;10.098;2023-03-21T10:32:56;96696.47;;;21.64;33.83
48216;BME280;34005;48.844;10.098;2023-03-21T10:37:56;96684.66;;;21.76;33.40
48216;BME280;34005;48.844;10.098;2023-03-21T10:40:24;96686.44;;;21.98;34.17
48216;BME280;34005;48.844;10.098;2023-03-21T10:42:54;96677.41;;;22.26;33.57
48216;BME280;34005;48.844;10.098;2023-03-21T10:45:23;96676.06;;;22.61;32.13
48216;BME280;34005;48.844;10.098;2023-03-21T10:47:50;96679.66;;;22.87;31.66
48216;BME280;34005;48.844;10.098;2023-03-21T10:50:20;96676.09;;;23.24;31.10
48216;BME280;34005;48.844;10.098;2023-03-21T10:52:55;96679.97;;;23.74;30.00
48216;BME280;34005;48.844;10.098;2023-03-21T10:55:27;96677.88;;;23.92;30.33
48216;BME280;34005;48.844;10.098;2023-03-21T10:58:02;96685.63;;;24.14;30.46
48216;BME280;34005;48.844;10.098;2023-03-21T11:00:35;96681.38;;;24.28;29.34
48216;BME280;34005;48.844;10.098;2023-03-21T11:03:04;96676.03;;;24.49;30.25
48216;BME280;34005;48.844;10.098;2023-03-21T11:05:35;96673.59;;;24.78;30.34
48216;BME280;34005;48.844;10.098;2023-03-21T11:08:05;96669.22;;;25.07;31.13
48216;BME280;34005;48.844;10.098;2023-03-21T11:10:34;96661.72;;;25.20;29.84
48216;BME280;34005;48.844;10.098;2023-03-21T11:13:07;96659.06;;;25.15;28.20
48216;BME280;34005;48.844;10.098;2023-03-21T11:15:51;96662.03;;;25.03;28.90
48216;BME280;34005;48.844;10.098;2023-03-21T11:18:20;96664.47;;;24.99;31.41
48216;BME280;34005;48.844;10.098;2023-03-21T11:20:50;96655.34;;;25.05;28.72
48216;BME280;34005;48.844;10.098;2023-03-21T11:23:20;96641.25;;;24.90;28.67
48216;BME280;34005;48.844;10.098;2023-03-21T11:25:49;96646.66;;;24.74;28.87
48216;BME280;34005;48.844;10.098;2023-03-21T11:28:21;96650.44;;;24.58;28.56
48216;BME280;34005;48.844;10.098;2023-03-21T11:30:51;96649.63;;;24.47;29.02
48216;BME280;34005;48.844;10.098;2023-03-21T11:33:21;96652.03;;;24.28;30.06
48216;BME280;34005;48.844;10.098;2023-03-21T11:36:00;96641.94;;;23.94;30.94
48216;BME280;34005;48.844;10.098;2023-03-21T11:38:30;96635.75;;;23.73;31.43
48216;BME280;34005;48.844;10.098;2023-03-21T11:41:00;96628.25;;;23.55;32.43
48216;BME280;34005;48.844;10.098;2023-03-21T11:43:31;96639.41;;;23.31;30.38
48216;BME280;34005;48.844;10.098;2023-03-21T11:46:05;96629.00;;;23.19;30.24
48216;BME280;34005;48.844;10.098;2023-03-21T11:48:35;96625.25;;;23.15;31.19
48216;BME280;34005;48.844;10.098;2023-03-21T11:51:11;96627.66;;;23.17;33.26
48216;BME280;34005;48.844;10.098;2023-03-21T11:53:46;96627.16;;;23.20;31.88
48216;BME280;34005;48.844;10.098;2023-03-21T11:56:19;96618.63;;;23.28;30.89
48216;BME280;34005;48.844;10.098;2023-03-21T11:59:01;96621.00;;;23.19;32.08
48216;BME280;34005;48.844;10.098;2023-03-21T12:01:37;96615.69;;;23.14;33.11
48216;BME280;34005;48.844;10.098;2023-03-21T12:04:18;96611.69;;;23.17;33.54
48216;BME280;34005;48.844;10.098;2023-03-21T12:06:52;96616.00;;;23.38;34.38
48216;BME280;34005;48.844;10.098;2023-03-21T12:09:32;96612.56;;;23.43;31.41
48216;BME280;34005;48.844;10.098;2023-03-21T12:12:12;96605.88;;;23.30;33.52
48216;BME280;34005;48.844;10.098;2023-03-21T12:14:57;96603.66;;;23.07;33.02
48216;BME280;34005;48.844;10.098;2023-03-21T12:17:36;96587.38;;;22.88;31.37
48216;BME280;34005;48.844;10.098;2023-03-21T12:20:22;96586.56;;;22.87;33.89
48216;BME280;34005;48.844;10.098;2023-03-21T12:23:05;96582.88;;;22.98;34.49
48216;BME280;34005;48.844;10.098;2023-03-21T12:25:40;96583.91;;;22.92;31.63
48216;BME280;34005;48.844;10.098;2023-03-21T12:28:21;96577.41;;;22.57;31.44
48216;BME280;34005;48.844;10.098;2023-03-21T12:31:06;96568.63;;;22.14;32.96
48216;BME280;34005;48.844;10.098;2023-03-21T12:33:44;96562.38;;;21.93;32.40
48216;BME280;34005;48.844;10.098;2023-03-21T12:36:24;96559.69;;;21.88;33.46
48216;BME280;34005;48.844;10.098;2023-03-21T12:39:04;96567.28;;;21.74;34.69
48216;BME280;34005;48.844;10.098;2023-03-21T12:41:42;96558.63;;;21.52;33.43
48216;BME280;34005;48.844;10.098;2023-03-21T12:44:13;96559.94;;;21.27;33.58
48216;BME280;34005;48.844;10.098;2023-03-21T12:46:44;96553.53;;;20.96;33.68
48216;BME280;34005;48.844;10.098;2023-03-21T12:49:15;96557.31;;;20.78;37.15
48216;BME280;34005;48.844;10.098;2023-03-21T12:51:47;96552.88;;;20.62;36.57
48216;BME280;34005;48.844;10.098;2023-03-21T12:54:22;96553.31;;;20.36;34.74
48216;BME280;34005;48.844;10.098;2023-03-21T12:56:57;96549.59;;;20.15;35.99
48216;BME280;34005;48.844;10.098;2023-03-21T12:59:33;96541.81;;;20.09;35.66
48216;BME280;34005;48.844;10.098;2023-03-21T13:20:57;96529.72;;;19.45;37.62
48216;BME280;34005;48.844;10.098;2023-03-21T13:23:34;96530.53;;;19.29;36.59
48216;BME280;34005;48.844;10.098;2023-03-21T13:26:03;96531.06;;;19.14;37.28
48216;BME280;34005;48.844;10.098;2023-03-21T13:28:35;96524.56;;;19.05;37.31
48216;BME280;34005;48.844;10.098;2023-03-21T13:31:16;96526.78;;;18.96;37.57
48216;BME280;34005;48.844;10.098;2023-03-21T13:33:47;96523.03;;;18.80;37.46
48216;BME280;34005;48.844;10.098;2023-03-21T13:36:22;96530.63;;;18.65;37.66
48216;BME280;34005;48.844;10.098;2023-03-21T13:38:52;96530.19;;;18.56;40.48
48216;BME280;34005;48.844;10.098;2023-03-21T13:41:27;96521.81;;;18.47;38.95
48216;BME280;34005;48.844;10.098;2023-03-21T13:44:05;96526.22;;;18.42;39.85
48216;BME280;34005;48.844;10.098;2023-03-21T13:46:42;96526.66;;;18.39;39.93
48216;BME280;34005;48.844;10.098;2023-03-21T13:49:26;96523.16;;;18.33;40.62
48216;BME280;34005;48.844;10.098;2023-03-21T13:51:58;96520.84;;;18.25;41.15
48216;BME280;34005;48.844;10.098;2023-03-21T13:54:32;96519.38;;;18.17;39.49
48216;BME280;34005;48.844;10.098;2023-03-21T13:57:21;96511.47;;;18.05;40.77
48216;BME280;34005;48.844;10.098;2023-03-21T14:00:18;96506.66;;;18.02;39.38
48216;BME280;34005;48.844;10.098;2023-03-21T14:02:56;96509.41;;;17.96;39.43
48216;BME280;34005;48.844;10.098;2023-03-21T14:05:26;96507.69;;;17.89;40.81
48216;BME280;34005;48.844;10.098;2023-03-21T14:07:57;96515.25;;;17.86;39.66
48216;BME280;34005;48.844;10.098;2023-03-21T14:10:42;96508.69;;;17.77;40.40
48216;BME280;34005;48.844;10.098;2023-03-21T14:13:15;96503.19;;;17.66;40.54
48216;BME280;34005;48.844;10.098;2023-03-21T14:15:45;96499.16;;;17.64;40.34
48216;BME280;34005;48.844;10.098;2023-03-21T14:18:23;96502.13;;;17.56;39.94
48216;BME280;34005;48.844;10.098;2023-03-21T14:21:16;96495.16;;;17.49;40.78
48216;BME280;34005;48.844;10.098;2023-03-21T14:23:57;96493.88;;;17.40;39.51
48216;BME280;34005;48.844;10.098;2023-03-21T14:26:26;96491.22;;;17.28;40.73
48216;BME280;34005;48.844;10.098;2023-03-21T14:28:55;96490.97;;;17.18;39.61
48216;BME280;34005;48.844;10.098;2023-03-21T14:31:24;96488.69;;;17.10;40.95
48216;BME280;34005;48.844;10.098;2023-03-21T14:33:55;96490.72;;;17.08;40.29
48216;BME280;34005;48.844;10.098;2023-03-21T14:36:25;96484.88;;;17.06;43.20
48216;BME280;34005;48.844;10.098;2023-03-21T14:39:02;96485.91;;;17.05;41.17